Time;durP1;ratioP1;P1;durP2;ratioP2;P2;SDS_P1;SDS_P2;PMS_P1;PMS_P2;Temp;Humidity;BMP_temperature;BMP_pressure;BME280_temperature;BME280_humidity;BME280_pressure;Samples;Min_cycle;Max_cycle;Signal;HPM_P1;HPM_P2
2022/10/03 00:00:10;;;;;;;13.48;1.98;;;;;;;9.32;100.00;98927.41;15338891;19;20018;-82
2022/10/03 00:05:51;;;;;;;8.85;1.80;;;;;;;9.25;100.00;98919.91;15306694;19;20011;-81
2022/10/03 00:11:29;;;;;;;7.13;1.73;;;;;;;9.22;100.00;98927.41;15295810;19;20007;-80
2022/10/03 00:17:04;;;;;;;7.60;1.92;;;;;;;9.17;100.00;98924.31;15297988;19;20013;-80
2022/10/03 00:22:41;;;;;;;10.57;2.40;;;;;;;9.20;100.00;98949.06;15290466;19;20331;-80
2022/10/03 00:28:17;;;;;;;9.38;1.90;;;;;;;9.12;100.00;98954.25;15299708;19;20031;-79
2022/10/03 00:33:56;;;;;;;11.48;1.83;;;;;;;9.08;100.00;98958.22;15292711;19;20031;-80
2022/10/03 00:39:49;;;;;;;9.13;2.05;;;;;;;8.96;100.00;98964.72;15291811;19;20459;-80
2022/10/03 00:45:49;;;;;;;11.05;2.22;;;;;;;8.87;100.00;98961.88;15301827;19;20359;-79
2022/10/03 00:51:31;;;;;;;11.00;1.92;;;;;;;8.85;100.00;98965.66;15334937;19;20014;-77
2022/10/03 00:57:14;;;;;;;11.45;2.10;;;;;;;8.84;100.00;98969.31;15306450;19;20027;-79
2022/10/03 01:02:51;;;;;;;11.38;2.20;;;;;;;8.85;100.00;98971.03;15290711;19;20645;-78
2022/10/03 01:08:45;;;;;;;13.07;1.90;;;;;;;8.89;100.00;98978.69;15308264;19;20022;-78
2022/10/03 01:14:24;;;;;;;11.90;1.95;;;;;;;8.94;100.00;98971.06;15306729;19;20214;-77
2022/10/03 01:20:07;;;;;;;8.77;1.85;;;;;;;9.00;100.00;98982.25;15320605;19;20043;-81
2022/10/03 01:25:42;;;;;;;8.18;1.75;;;;;;;8.99;100.00;98978.72;15311333;19;20098;-81
2022/10/03 01:31:16;;;;;;;12.63;2.20;;;;;;;8.97;100.00;98971.78;15308347;19;20010;-80
2022/10/03 01:36:50;;;;;;;11.93;2.22;;;;;;;8.92;100.00;98975.72;15312828;19;20074;-81
2022/10/03 01:42:23;;;;;;;11.65;2.13;;;;;;;8.89;100.00;98981.38;15301398;19;20401;-78
2022/10/03 01:47:55;;;;;;;12.48;2.13;;;;;;;8.87;100.00;98999.50;15308315;19;20078;-79
2022/10/03 01:53:27;;;;;;;8.52;2.03;;;;;;;8.83;100.00;98995.38;15300874;19;20025;-81
2022/10/03 01:59:01;;;;;;;8.68;1.67;;;;;;;8.83;100.00;98998.03;15314658;19;20029;-81
2022/10/03 02:04:50;;;;;;;13.10;2.05;;;;;;;8.80;100.00;99001.00;15297203;19;20010;-80
2022/10/03 02:10:26;;;;;;;10.40;2.03;;;;;;;8.81;100.00;99007.25;15308123;19;20018;-81
2022/10/03 02:16:05;;;;;;;13.45;2.15;;;;;;;8.78;100.00;99000.28;15303919;19;20484;-81
2022/10/03 02:21:34;;;;;;;14.70;2.17;;;;;;;8.83;100.00;98998.03;15298936;19;20006;-81
2022/10/03 02:27:20;;;;;;;10.18;2.10;;;;;;;8.81;100.00;99013.44;15309505;19;20014;-81
2022/10/03 02:33:26;;;;;;;12.35;2.13;;;;;;;8.82;100.00;99017.84;15302001;19;20014;-78
2022/10/03 02:39:27;;;;;;;11.13;2.13;;;;;;;8.83;100.00;99013.31;15309733;19;20015;-80
2022/10/03 02:45:26;;;;;;;9.18;1.88;;;;;;;8.80;100.00;99017.13;15310935;19;20444;-79
2022/10/03 02:51:29;;;;;;;9.82;1.90;;;;;;;8.78;100.00;99011.88;15305509;19;20078;-80
2022/10/03 02:57:28;;;;;;;13.60;2.15;;;;;;;8.74;100.00;99023.03;15308016;19;20014;-79
2022/10/03 03:03:24;;;;;;;10.88;2.15;;;;;;;8.76;100.00;99034.50;15320394;19;20452;-78
2022/10/03 03:09:02;;;;;;;7.15;1.70;;;;;;;8.77;100.00;99045.13;15324402;19;20039;-80
2022/10/03 03:14:59;;;;;;;12.88;2.10;;;;;;;8.75;100.00;99040.88;15315900;19;20047;-80
2022/10/03 03:20:45;;;;;;;10.75;2.20;;;;;;;8.83;100.00;99051.78;15325637;19;20014;-78
2022/10/03 03:26:30;;;;;;;9.57;2.08;;;;;;;8.87;100.00;99052.34;15321003;19;20014;-78
2022/10/03 03:32:04;;;;;;;10.20;2.17;;;;;;;8.89;100.00;99048.53;15296921;19;20015;-79
2022/10/03 03:37:39;;;;;;;13.18;2.05;;;;;;;8.92;100.00;99053.66;15307258;19;20018;-78
2022/10/03 03:43:33;;;;;;;12.95;2.00;;;;;;;8.98;100.00;99059.50;15300391;19;20007;-79
2022/10/03 03:49:14;;;;;;;9.48;1.90;;;;;;;9.02;100.00;99052.84;15310735;19;20090;-77
2022/10/03 03:55:00;;;;;;;11.40;2.30;;;;;;;9.01;100.00;99057.38;15312609;19;20062;-79
2022/10/03 04:00:30;;;;;;;8.07;1.88;;;;;;;9.01;100.00;99060.06;15312532;19;20019;-79
2022/10/03 04:06:17;;;;;;;12.65;2.00;;;;;;;8.95;100.00;99060.59;15304514;19;20418;-77
2022/10/03 04:12:00;;;;;;;10.57;2.00;;;;;;;8.96;100.00;99069.53;15297751;19;20031;-77
2022/10/03 04:23:40;;;;;;;13.70;2.00;;;;;;;9.02;100.00;99069.84;15290497;19;19998;-78
2022/10/03 04:29:31;;;;;;;10.67;2.20;;;;;;;9.01;100.00;99076.19;15298056;19;20037;-76
2022/10/03 04:35:12;;;;;;;11.07;2.20;;;;;;;8.95;100.00;99076.72;15283938;19;20018;-77
2022/10/03 04:40:50;;;;;;;9.60;2.40;;;;;;;8.94;100.00;99083.06;15292859;19;20476;-79
2022/10/03 04:46:31;;;;;;;9.75;1.90;;;;;;;9.00;100.00;99097.81;15308271;19;20018;-77
2022/10/03 04:52:03;;;;;;;14.27;2.30;;;;;;;9.03;100.00;99093.03;15302111;19;20015;-77
2022/10/03 04:57:38;;;;;;;10.60;2.30;;;;;;;9.07;100.00;99088.25;15302331;19;20031;-77
2022/10/03 05:03:14;;;;;;;10.18;2.20;;;;;;;9.07;100.00;99101.69;15305022;19;20015;-77
2022/10/03 05:08:54;;;;;;;12.20;2.30;;;;;;;9.09;100.00;99099.72;15305535;19;20021;-77
2022/10/03 05:14:28;;;;;;;12.48;2.20;;;;;;;9.16;100.00;99103.53;15301243;19;20083;-78
2022/10/03 05:20:10;;;;;;;13.13;2.38;;;;;;;9.19;100.00;99094.34;15316355;19;20094;-83
2022/10/03 05:25:53;;;;;;;14.00;2.40;;;;;;;9.17;100.00;99113.31;15372495;19;20022;-82
2022/10/03 05:31:57;;;;;;;10.95;2.08;;;;;;;9.17;100.00;99118.69;15352514;19;20015;-81
2022/10/03 05:37:50;;;;;;;13.45;2.53;;;;;;;9.18;100.00;99128.47;15352843;19;20018;-82
2022/10/03 05:43:37;;;;;;;14.70;2.53;;;;;;;9.15;100.00;99130.56;15331754;19;20051;-81
2022/10/03 05:49:22;;;;;;;13.15;2.30;;;;;;;9.13;100.00;99154.06;15316810;19;20066;-82
2022/10/03 05:55:07;;;;;;;14.27;2.80;;;;;;;9.15;100.00;99152.09;15315306;19;20930;-81
2022/10/03 06:00:46;;;;;;;18.92;2.55;;;;;;;9.16;100.00;99151.94;15313275;19;20028;-81
2022/10/03 06:06:27;;;;;;;12.48;2.40;;;;;;;9.21;100.00;99162.28;15316444;19;20019;-81
2022/10/03 06:12:04;;;;;;;14.60;2.50;;;;;;;9.23;100.00;99171.91;15314758;19;20006;-81
2022/10/03 06:18:01;;;;;;;17.83;2.65;;;;;;;9.31;100.00;99178.47;15310739;19;20028;-82
2022/10/03 06:23:56;;;;;;;16.65;2.70;;;;;;;9.31;100.00;99179.31;15310390;19;20062;-80
2022/10/03 06:35:56;;;;;;;12.65;2.40;;;;;;;9.40;100.00;99193.81;15368481;19;20046;-83
2022/10/03 06:41:54;;;;;;;12.98;2.67;;;;;;;9.51;100.00;99198.25;15309243;19;20372;-81
2022/10/03 06:47:39;;;;;;;13.05;2.60;;;;;;;9.56;100.00;99204.06;15308197;19;20021;-81
2022/10/03 06:53:20;;;;;;;13.20;2.38;;;;;;;9.68;100.00;99210.22;15301171;19;20014;-82
2022/10/03 06:59:18;;;;;;;10.67;2.10;;;;;;;9.71;100.00;99207.22;15305435;19;20078;-81
2022/10/03 07:05:21;;;;;;;11.90;2.35;;;;;;;9.80;100.00;99214.50;15295993;19;20015;-82
2022/10/03 07:11:08;;;;;;;9.70;2.00;;;;;;;9.95;100.00;99208.72;15299994;19;20018;-79
2022/10/03 07:17:16;;;;;;;13.32;2.20;;;;;;;10.02;100.00;99199.09;15304054;19;20045;-80
2022/10/03 07:23:12;;;;;;;9.43;2.30;;;;;;;10.06;100.00;99200.50;15291108;19;20475;-80
2022/10/03 07:29:09;;;;;;;8.43;2.10;;;;;;;10.11;100.00;99202.81;15293642;19;20025;-80
2022/10/03 07:35:09;;;;;;;10.32;2.17;;;;;;;10.26;100.00;99216.72;15296421;19;20497;-78
2022/10/03 07:41:06;;;;;;;7.88;2.10;;;;;;;10.32;100.00;99225.09;15297819;19;20024;-80
2022/10/03 07:46:57;;;;;;;10.75;2.28;;;;;;;10.43;100.00;99229.50;15300517;19;20011;-80
2022/10/03 07:52:44;;;;;;;9.47;2.27;;;;;;;10.48;100.00;99231.78;15295140;19;20476;-80
2022/10/03 07:58:41;;;;;;;14.63;2.50;;;;;;;10.55;100.00;99222.16;15291895;19;20014;-78
2022/10/03 08:04:34;;;;;;;11.02;2.40;;;;;;;10.61;100.00;99229.66;15291492;19;20022;-80
2022/10/03 08:10:20;;;;;;;10.88;2.20;;;;;;;10.63;100.00;99234.94;15297413;19;20014;-80
2022/10/03 08:16:03;;;;;;;10.32;2.33;;;;;;;10.67;100.00;99228.25;15291938;19;20091;-84
2022/10/03 08:21:37;;;;;;;9.18;1.83;;;;;;;10.75;100.00;99233.81;15294302;19;20018;-81
2022/10/03 08:27:31;;;;;;;11.63;2.20;;;;;;;10.85;100.00;99236.47;15297996;19;20018;-81
2022/10/03 08:33:11;;;;;;;12.40;1.90;;;;;;;10.88;100.00;99238.03;15284302;19;20010;-79
2022/10/03 08:39:01;;;;;;;6.80;1.80;;;;;;;10.89;100.00;99228.94;15303883;19;20022;-79
2022/10/03 08:44:48;;;;;;;6.95;1.90;;;;;;;10.99;100.00;99224.41;15273404;19;20014;-79
2022/10/03 08:50:52;;;;;;;8.00;2.10;;;;;;;11.29;100.00;99218.97;15309353;19;20518;-79
2022/10/03 08:56:22;;;;;;;8.43;2.22;;;;;;;11.40;100.00;99219.63;15305951;19;20081;-80
2022/10/03 09:02:13;;;;;;;7.45;1.60;;;;;;;11.58;100.00;99213.47;15302929;19;20014;-80
2022/10/03 09:08:12;;;;;;;7.93;1.67;;;;;;;11.60;100.00;99214.13;15302046;19;20603;-80
2022/10/03 09:14:43;;;;;;;6.50;1.70;;;;;;;11.55;100.00;99213.75;15293825;19;20497;-80
2022/10/03 09:20:35;;;;;;;9.90;2.00;;;;;;;11.64;100.00;99217.41;15299583;19;20022;-79
2022/10/03 09:26:14;;;;;;;;;;;;;;;11.25;100.00;99227.34;15305482;19;20030;-81
2022/10/03 09:32:10;;;;;;;5.70;1.30;;;;;;;11.40;100.00;99241.19;15316433;19;19918;-79
2022/10/03 09:44:02;;;;;;;9.48;1.48;;;;;;;11.70;100.00;99250.03;15326072;19;20031;-80
2022/10/03 09:50:07;;;;;;;6.00;1.33;;;;;;;11.83;100.00;99228.13;15311659;19;20449;-80
2022/10/03 09:55:51;;;;;;;7.78;1.38;;;;;;;12.00;100.00;99234.59;15363449;19;20018;-78
2022/10/03 10:01:27;;;;;;;5.88;1.60;;;;;;;12.13;100.00;99233.41;15310793;19;20014;-79
2022/10/03 10:07:42;;;;;;;3.92;1.15;;;;;;;12.29;100.00;99216.50;15301616;19;20038;-79
2022/10/03 10:13:34;;;;;;;3.67;1.15;;;;;;;12.50;100.00;99218.94;15291679;19;20042;-77
2022/10/03 10:19:52;;;;;;;5.18;1.55;;;;;;;12.89;100.00;99223.97;15306280;19;20557;-79
2022/10/03 10:25:44;;;;;;;4.88;1.13;;;;;;;13.26;100.00;99209.38;15303536;19;20022;-79
2022/10/03 10:31:56;;;;;;;4.82;1.35;;;;;;;13.28;100.00;99189.44;15304525;19;20038;-79
2022/10/03 10:37:36;;;;;;;;;;;;;;;13.37;100.00;99197.44;15307570;19;20018;-80
2022/10/03 10:43:48;;;;;;;5.88;1.42;;;;;;;13.53;100.00;99183.19;15299599;19;19978;-80
2022/10/03 10:49:45;;;;;;;3.83;1.10;;;;;;;13.69;100.00;99178.84;15309890;19;20042;-79
2022/10/03 10:55:50;;;;;;;3.35;1.20;;;;;;;13.55;100.00;99183.88;15293407;19;20046;-80
2022/10/03 11:01:51;;;;;;;4.40;1.08;;;;;;;13.38;100.00;99174.78;15302462;19;20028;-80
2022/10/03 11:08:03;;;;;;;4.40;1.20;;;;;;;13.55;100.00;99169.47;15308072;19;20010;-80
2022/10/03 11:13:55;;;;;;;;;;;;;;;13.77;100.00;99170.75;15299677;19;20015;-78
2022/10/03 11:20:05;;;;;;;4.45;1.30;;;;;;;13.54;100.00;99179.47;15305246;19;20294;-78
2022/10/03 11:32:41;;;;;;;2.47;1.02;;;;;;;13.56;100.00;99187.41;15290189;19;20043;-80
2022/10/03 11:38:14;;;;;;;3.78;1.13;;;;;;;13.54;100.00;99184.00;15304544;19;20316;-79
2022/10/03 11:44:08;;;;;;;3.47;0.90;;;;;;;13.65;100.00;99169.34;15300574;19;20011;-79
2022/10/03 11:49:56;;;;;;;4.20;1.10;;;;;;;13.54;100.00;99175.91;15301277;19;20011;-79
2022/10/03 11:55:35;;;;;;;4.60;1.27;;;;;;;13.39;100.00;99191.88;15297749;19;20010;-78
2022/10/03 12:01:18;;;;;;;4.38;0.95;;;;;;;13.71;100.00;99179.53;15299538;19;20027;-79
2022/10/03 12:12:47;;;;;;;4.70;1.10;;;;;;;14.31;100.00;99170.41;15291862;19;20021;-79
2022/10/03 12:18:19;;;;;;;3.50;1.02;;;;;;;14.18;100.00;99165.44;15296403;19;20025;-79
2022/10/03 12:24:03;;;;;;;5.68;2.80;;;;;;;13.96;100.00;99161.50;15300357;19;20058;-78
2022/10/03 12:29:33;;;;;;;3.00;1.05;;;;;;;14.24;100.00;99169.34;15299031;19;20018;-79
2022/10/03 12:35:33;;;;;;;3.22;1.10;;;;;;;14.35;100.00;99160.06;15316932;19;20011;-79
2022/10/03 12:41:11;;;;;;;3.53;1.00;;;;;;;14.41;100.00;99156.66;15318395;19;20728;-79
2022/10/03 12:46:45;;;;;;;4.13;1.10;;;;;;;14.22;100.00;99159.69;15316564;19;20059;-78
2022/10/03 12:52:14;;;;;;;2.83;0.93;;;;;;;14.25;100.00;99160.22;15305855;19;20457;-78
2022/10/03 12:57:52;;;;;;;1.90;0.80;;;;;;;14.22;100.00;99157.00;15298658;19;20006;-78
2022/10/03 13:03:37;;;;;;;3.72;1.10;;;;;;;14.25;100.00;99159.38;15298168;19;20014;-80
2022/10/03 13:09:25;;;;;;;3.80;0.98;;;;;;;14.21;100.00;99152.56;15316194;19;20010;-80
2022/10/03 13:15:19;;;;;;;4.10;0.90;;;;;;;14.17;100.00;99147.47;15312555;19;20055;-79
2022/10/03 13:20:49;;;;;;;2.67;1.00;;;;;;;14.23;100.00;99154.09;15314169;19;20085;-79
2022/10/03 13:26:22;;;;;;;4.00;0.98;;;;;;;14.20;100.00;99151.75;15343832;19;20024;-79
2022/10/03 13:32:02;;;;;;;5.57;1.00;;;;;;;14.10;100.00;99173.56;15326338;19;20018;-78
2022/10/03 13:37:37;;;;;;;3.25;1.05;;;;;;;14.14;100.00;99144.25;15294950;19;20666;-79
2022/10/03 13:43:04;;;;;;;4.80;1.20;;;;;;;14.62;100.00;99149.91;15292385;19;20470;-78
2022/10/03 13:48:31;;;;;;;3.58;0.90;;;;;;;14.53;100.00;99142.78;15303227;19;20019;-79
2022/10/03 13:54:10;;;;;;;5.20;1.02;;;;;;;14.46;100.00;99135.34;15298611;19;20018;-78
2022/10/03 13:59:48;;;;;;;2.55;0.82;;;;;;;14.48;100.00;99130.59;15305555;19;20355;-78
2022/10/03 14:05:39;;;;;;;3.35;0.80;;;;;;;14.49;100.00;99140.44;15306505;19;20042;-78
2022/10/03 14:11:17;;;;;;;4.38;1.00;;;;;;;14.38;100.00;99138.06;15302643;19;20015;-79
2022/10/03 14:16:44;;;;;;;3.72;1.10;;;;;;;14.34;100.00;99142.09;15304031;19;20014;-80
2022/10/03 14:22:30;;;;;;;3.65;1.02;;;;;;;14.27;100.00;99152.75;15313054;19;20029;-77
2022/10/03 14:28:10;;;;;;;2.55;0.88;;;;;;;14.26;100.00;99145.66;15324969;19;20045;-77
2022/10/03 14:33:42;;;;;;;2.90;0.80;;;;;;;14.13;100.00;99146.16;15300906;19;20022;-79
2022/10/03 14:39:20;;;;;;;3.13;0.95;;;;;;;14.06;100.00;99150.50;15300744;19;20524;-81
2022/10/03 14:44:55;;;;;;;2.58;0.70;;;;;;;13.98;100.00;99148.66;15302286;19;20018;-79
2022/10/03 14:50:26;;;;;;;2.63;0.70;;;;;;;13.96;100.00;99144.41;15297727;19;20014;-76
2022/10/03 14:56:01;;;;;;;3.50;0.88;;;;;;;13.92;100.00;99143.06;15301056;19;20025;-77
2022/10/03 15:01:32;;;;;;;3.30;1.10;;;;;;;13.89;100.00;99144.22;15299079;19;20461;-78
2022/10/03 15:07:00;;;;;;;2.25;0.80;;;;;;;13.86;100.00;99142.69;15291531;19;20015;-54
2022/10/03 15:12:29;;;;;;;4.90;4.25;;;;;;;13.90;100.00;99135.06;15280012;19;20010;-53
2022/10/03 15:17:59;;;;;;;3.22;1.20;;;;;;;14.11;100.00;99134.63;15287426;19;20018;-54
2022/10/03 15:23:36;;;;;;;2.72;1.00;;;;;;;14.26;100.00;99126.66;15273841;19;20425;-77
2022/10/03 15:29:04;;;;;;;3.20;1.00;;;;;;;14.37;100.00;99103.81;15287194;19;20007;-78
2022/10/03 15:34:38;;;;;;;2.35;0.80;;;;;;;14.35;100.00;99108.56;15271107;19;20757;-78
2022/10/03 15:40:09;;;;;;;2.78;1.10;;;;;;;14.49;100.00;99107.88;15293104;19;20383;-76
2022/10/03 15:45:40;;;;;;;2.85;0.90;;;;;;;14.56;100.00;99099.94;15291585;19;20018;-78
2022/10/03 15:51:17;;;;;;;3.72;1.17;;;;;;;14.46;100.00;99110.09;15295660;19;20027;-79
2022/10/03 15:57:08;;;;;;;3.50;1.67;;;;;;;14.08;100.00;99102.44;15299492;19;20017;-76
2022/10/03 16:02:36;;;;;;;4.80;1.27;;;;;;;13.78;100.00;99112.88;15283279;19;20014;-78
2022/10/03 16:08:13;;;;;;;4.07;1.20;;;;;;;13.66;100.00;99111.47;15290902;19;20014;-77
2022/10/03 16:13:41;;;;;;;4.55;2.85;;;;;;;13.49;100.00;99116.00;15292691;19;20011;-77
2022/10/03 16:19:29;;;;;;;3.45;1.17;;;;;;;13.31;100.00;99114.19;15296370;19;20024;-77
2022/10/03 16:25:21;;;;;;;4.82;3.22;;;;;;;13.12;100.00;99126.09;15337033;19;20014;-78
2022/10/03 16:30:52;;;;;;;4.53;1.23;;;;;;;13.05;100.00;99128.56;15299568;19;20023;-77
2022/10/03 16:36:18;;;;;;;3.92;0.90;;;;;;;12.98;100.00;99132.94;15252772;19;20026;-76
